^^
Saratoga-Weather Station Historical Data
Daily Summary for May 22, 2021 Units:  English    Metric   Both
Daily Weekly Monthly Yearly Custom
  High: Low: Average:
Temperature: 68.2 °F 46.6 °F 56.5 °F
Dew Point: 53.6 °F 44.1 °F 47.8 °F
Humidity: 92% 53% 75%
Wind Speed: 9mph 0mph 0.8mph
Wind Gust: 10mph - -
Wind- - ESE
Pressure: 30.4 in 30.3 in -
Precipitation: 0 in    
Historical Graphs
 
 
Tabular Data for May 22, 2021
Time Temperature Dew Point Pressure Wind Wind Speed Wind Gust Humidity Rainfall Rate (Hourly) solar
00:00 51.1 °F 46.4 °F 30.4 in Calm     84% 0 in 0 W/m2
00:05 51.1 °F 46.4 °F 30.4 in SSW 0.9 mph 1 mph 84% 0 in 0 W/m2
00:10 50.9 °F 46.2 °F 30.4 in SSW 0.9 mph 2 mph 84% 0 in 0 W/m2
00:15 50.7 °F 46 °F 30.4 in Calm   1 mph 84% 0 in 0 W/m2
00:20 50.7 °F 46 °F 30.4 in Calm   2 mph 84% 0 in 0 W/m2
00:25 50.9 °F 46.2 °F 30.4 in SSW 0.9 mph 2 mph 84% 0 in 0 W/m2
00:30 50.9 °F 46.2 °F 30.4 in Calm     84% 0 in 0 W/m2
00:35 51.1 °F 46.4 °F 30.4 in Calm   2 mph 84% 0 in 0 W/m2
00:40 51.1 °F 46.4 °F 30.4 in Calm     84% 0 in 0 W/m2
00:45 50.9 °F 46.2 °F 30.4 in SSW 0.9 mph 1 mph 84% 0 in 0 W/m2
00:50 50.7 °F 46 °F 30.4 in Calm     84% 0 in 0 W/m2
00:55 50.5 °F 45.9 °F 30.4 in SSW 0.9 mph 1 mph 84% 0 in 0 W/m2
01:00 50.5 °F 45.9 °F 30.4 in Calm   1 mph 84% 0 in 0 W/m2
01:06 50.4 °F 46 °F 30.4 in SSW 2 mph 2 mph 85% 0 in 0 W/m2
01:11 50.2 °F 45.9 °F 30.4 in SSW 0.9 mph 2 mph 85% 0 in 0 W/m2
01:16 50.2 °F 45.9 °F 30.4 in Calm   1 mph 85% 0 in 0 W/m2
01:21 49.8 °F 45.9 °F 30.4 in SSW 2 mph 2 mph 86% 0 in 0 W/m2
01:26 49.8 °F 45.9 °F 30.4 in Calm   1 mph 86% 0 in 0 W/m2
01:31 49.6 °F 45.7 °F 30.4 in Calm     86% 0 in 0 W/m2
01:48 49.5 °F 45.7 °F 30.4 in Calm     87% 0 in 0 W/m2
01:53 49.5 °F 45.7 °F 30.4 in Calm     87% 0 in 0 W/m2
01:58 49.3 °F 45.5 °F 30.4 in Calm     87% 0 in 0 W/m2
02:03 49.3 °F 45.5 °F 30.4 in Calm     87% 0 in 0 W/m2
02:08 48.9 °F 45.1 °F 30.4 in Calm     87% 0 in 0 W/m2
02:13 48.9 °F 45.1 °F 30.4 in Calm     87% 0 in 0 W/m2
02:30 48.9 °F 45.5 °F 30.4 in Calm   1 mph 88% 0 in 0 W/m2
02:35 48.9 °F 45.5 °F 30.4 in Calm     88% 0 in 0 W/m2
02:40 48.7 °F 45.3 °F 30.4 in Calm   1 mph 88% 0 in 0 W/m2
02:45 48.7 °F 45.3 °F 30.4 in Calm   1 mph 88% 0 in 0 W/m2
02:50 48.7 °F 45.3 °F 30.4 in Calm   1 mph 88% 0 in 0 W/m2
02:55 48.7 °F 45.3 °F 30.4 in Calm     88% 0 in 0 W/m2
03:00 48.6 °F 45.1 °F 30.4 in Calm     88% 0 in 0 W/m2
03:05 48.6 °F 45.1 °F 30.4 in Calm   1 mph 88% 0 in 0 W/m2
03:10 48.4 °F 45 °F 30.4 in Calm     88% 0 in 0 W/m2
03:15 48.4 °F 45.3 °F 30.4 in Calm   1 mph 89% 0 in 0 W/m2
03:20 48.2 °F 45.1 °F 30.4 in Calm     89% 0 in 0 W/m2
03:25 48 °F 45 °F 30.4 in West 0.9 mph 2 mph 89% 0 in 0 W/m2
03:30 48 °F 45 °F 30.4 in Calm   1 mph 89% 0 in 0 W/m2
03:35 48 °F 45.1 °F 30.4 in SW 0.9 mph 2 mph 90% 0 in 0 W/m2
03:40 48 °F 45 °F 30.4 in Calm     89% 0 in 0 W/m2
03:45 48.2 °F 45.1 °F 30.4 in SW 0.9 mph 2 mph 89% 0 in 0 W/m2
04:02 48 °F 45 °F 30.4 in Calm     89% 0 in 0 W/m2
04:07 47.8 °F 44.8 °F 30.4 in Calm     89% 0 in 0 W/m2
04:12 47.8 °F 44.8 °F 30.4 in Calm     89% 0 in 0 W/m2
04:17 47.7 °F 44.6 °F 30.4 in Calm     89% 0 in 0 W/m2
04:22 47.7 °F 45 °F 30.4 in Calm     90% 0 in 0 W/m2
04:27 47.5 °F 44.8 °F 30.4 in Calm     90% 0 in 0 W/m2
04:32 47.3 °F 44.6 °F 30.4 in Calm   1 mph 90% 0 in 0 W/m2
04:37 47.3 °F 44.6 °F 30.4 in Calm   1 mph 90% 0 in 0 W/m2
04:42 47.1 °F 44.4 °F 30.4 in Calm     90% 0 in 0 W/m2
04:47 47.1 °F 44.6 °F 30.4 in Calm     91% 0 in 0 W/m2
04:52 46.9 °F 44.4 °F 30.4 in Calm     91% 0 in 0 W/m2
04:57 46.9 °F 44.4 °F 30.4 in Calm     91% 0 in 0 W/m2
05:02 46.9 °F 44.4 °F 30.4 in Calm     91% 0 in 0 W/m2
05:07 46.8 °F 44.2 °F 30.4 in Calm     91% 0 in 0 W/m2
05:12 46.8 °F 44.2 °F 30.4 in Calm     91% 0 in 0 W/m2
05:17 46.8 °F 44.2 °F 30.4 in Calm     91% 0 in 0 W/m2
05:22 46.8 °F 44.2 °F 30.4 in Calm     91% 0 in 0 W/m2
05:27 46.6 °F 44.1 °F 30.4 in Calm     91% 0 in 0 W/m2
05:32 46.6 °F 44.1 °F 30.4 in Calm     91% 0 in 0 W/m2
05:37 46.6 °F 44.1 °F 30.4 in Calm     91% 0 in 0 W/m2
05:42 46.6 °F 44.4 °F 30.4 in Calm     92% 0 in 0 W/m2
05:47 46.6 °F 44.4 °F 30.4 in Calm     92% 0 in 0 W/m2
05:52 46.6 °F 44.4 °F 30.4 in Calm   3 mph 92% 0 in 0 W/m2
05:57 46.8 °F 44.6 °F 30.4 in Calm     92% 0 in 0 W/m2
06:14 46.8 °F 44.6 °F 30.4 in Calm     92% 0 in 0 W/m2
06:19 46.8 °F 44.6 °F 30.4 in Calm   1 mph 92% 0 in 0 W/m2
06:24 46.8 °F 44.6 °F 30.4 in Calm     92% 0 in 0 W/m2
06:29 46.9 °F 44.8 °F 30.4 in Calm     92% 0 in 0 W/m2
06:34 46.9 °F 44.8 °F 30.4 in Calm     92% 0 in 0 W/m2
06:39 46.9 °F 44.8 °F 30.4 in Calm     92% 0 in 0 W/m2
06:44 46.9 °F 44.8 °F 30.4 in Calm   3 mph 92% 0 in 0 W/m2
06:49 46.9 °F 44.8 °F 30.4 in Calm   1 mph 92% 0 in 0 W/m2
06:54 47.1 °F 45 °F 30.4 in Calm     92% 0 in 0 W/m2
06:59 47.1 °F 44.6 °F 30.4 in Calm   1 mph 91% 0 in 0 W/m2
07:04 46.9 °F 44.4 °F 30.4 in Calm     91% 0 in 0 W/m2
07:09 46.9 °F 44.4 °F 30.4 in Calm     91% 0 in 0 W/m2
07:14 46.9 °F 44.4 °F 30.4 in Calm     91% 0 in 0 W/m2
07:19 46.9 °F 44.4 °F 30.4 in Calm     91% 0 in 0 W/m2
07:24 46.9 °F 44.4 °F 30.4 in Calm     91% 0 in 0 W/m2
07:29 46.9 °F 44.4 °F 30.4 in Calm     91% 0 in 5 W/m2
07:34 46.8 °F 44.2 °F 30.4 in Calm     91% 0 in 7 W/m2
07:39 46.8 °F 44.2 °F 30.4 in Calm     91% 0 in 11 W/m2
07:44 46.8 °F 44.2 °F 30.4 in Calm     91% 0 in 16 W/m2
07:49 46.8 °F 44.6 °F 30.4 in Calm   1 mph 92% 0 in 19 W/m2
07:54 46.9 °F 44.8 °F 30.4 in SSW 0.9 mph 1 mph 92% 0 in 23 W/m2
07:59 46.9 °F 44.8 °F 30.4 in Calm     92% 0 in 26 W/m2
08:16 47.5 °F 45 °F 30.4 in Calm   2 mph 91% 0 in 39 W/m2
08:21 47.7 °F 45.1 °F 30.4 in Calm     91% 0 in 44 W/m2
08:26 47.7 °F 45 °F 30.4 in Calm   2 mph 90% 0 in 47 W/m2
08:31 47.7 °F 45 °F 30.4 in Calm   1 mph 90% 0 in 53 W/m2
08:36 47.8 °F 45 °F 30.4 in Calm     90% 0 in 53 W/m2
08:41 48 °F 45.1 °F 30.4 in Calm     90% 0 in 56 W/m2
08:46 48 °F 45.1 °F 30.4 in Calm     90% 0 in 60 W/m2
08:51 48.4 °F 45.3 °F 30.4 in Calm     89% 0 in 63 W/m2
08:56 48.6 °F 45.5 °F 30.4 in NW 0.9 mph 2 mph 89% 0 in 69 W/m2
09:01 48.7 °F 45.3 °F 30.4 in Calm     88% 0 in 69 W/m2
09:06 48.9 °F 45.5 °F 30.4 in Calm   2 mph 88% 0 in 105 W/m2
09:11 49.1 °F 45.7 °F 30.4 in Calm     88% 0 in 176 W/m2
09:27 50.9 °F 46.9 °F 30.4 in Calm   3 mph 86% 0 in 216 W/m2
09:32 51.4 °F 46.8 °F 30.4 in East 2.9 mph 3 mph 84% 0 in 243 W/m2
09:37 52 °F 46.9 °F 30.4 in NE 2 mph 3 mph 83% 0 in 257 W/m2
09:42 52.2 °F 47.1 °F 30.4 in ESE 2 mph 4 mph 83% 0 in 239 W/m2
09:47 52.5 °F 47.1 °F 30.4 in Calm   1 mph 82% 0 in 251 W/m2
09:52 52.7 °F 47.1 °F 30.4 in Calm     81% 0 in 276 W/m2
09:57 52.7 °F 47.1 °F 30.4 in Calm   2 mph 81% 0 in 309 W/m2
10:02 52.9 °F 47.3 °F 30.4 in Calm   1 mph 81% 0 in 341 W/m2
10:07 53.2 °F 47.5 °F 30.4 in NNW 0.9 mph 2 mph 81% 0 in 362 W/m2
10:12 54 °F 48.2 °F 30.4 in Calm   2 mph 81% 0 in 371 W/m2
10:17 54.3 °F 48.2 °F 30.4 in Calm   2 mph 80% 0 in 385 W/m2
10:23 55 °F 48.4 °F 30.4 in East 0.9 mph 3 mph 78% 0 in 394 W/m2
10:28 55.6 °F 48.6 °F 30.4 in ENE 0.9 mph 3 mph 77% 0 in 401 W/m2
10:33 56.1 °F 48.7 °F 30.4 in Calm   3 mph 76% 0 in 424 W/m2
10:38 56.7 °F 48.7 °F 30.4 in NNE 0.9 mph 2 mph 75% 0 in 441 W/m2
10:43 57 °F 48.4 °F 30.4 in NE 2.9 mph 4 mph 73% 0 in 450 W/m2
10:48 57.2 °F 48.9 °F 30.4 in ENE 2 mph 2 mph 74% 0 in 468 W/m2
11:06 58.6 °F 49.3 °F 30.4 in ENE 0.9 mph 2 mph 71% 0 in 522 W/m2
11:11 59.2 °F 49.1 °F 30.4 in ENE 0.9 mph 2 mph 69% 0 in 510 W/m2
11:16 59.7 °F 50 °F 30.4 in Calm   3 mph 70% 0 in 517 W/m2
11:21 60.3 °F 50 °F 30.4 in ENE 2 mph 2 mph 69% 0 in 531 W/m2
11:26 60.6 °F 49.6 °F 30.4 in Calm   3 mph 67% 0 in 547 W/m2
11:31 61 °F 49.5 °F 30.4 in Calm   3 mph 66% 0 in 536 W/m2
11:36 61.3 °F 49.8 °F 30.4 in Calm   2 mph 66% 0 in 522 W/m2
11:41 61.5 °F 50 °F 30.4 in East 2 mph 4 mph 66% 0 in 512 W/m2
11:46 61.7 °F 50.2 °F 30.4 in SE 2.9 mph 7 mph 66% 0 in 538 W/m2
11:51 62.1 °F 50.5 °F 30.4 in SE 0.9 mph 4 mph 66% 0 in 566 W/m2
11:56 62.6 °F 50.7 °F 30.4 in ENE 2 mph 6 mph 65% 0 in 577 W/m2
12:01 63.3 °F 48.7 °F 30.4 in SE 2.9 mph 10 mph 59% 0 in 608 W/m2
12:06 63.5 °F 48.9 °F 30.4 in East 0.9 mph 6 mph 59% 0 in 628 W/m2
12:25 64.2 °F 48.7 °F 30.4 in ENE 2.9 mph 7 mph 57% 0 in 744 W/m2
12:30 64.8 °F 50.2 °F 30.4 in East 2 mph 3 mph 59% 0 in 610 W/m2
12:35 64.9 °F 48.9 °F 30.4 in NE 2 mph 3 mph 56% 0 in 322 W/m2
12:40 64.9 °F 48.4 °F 30.4 in East 0.9 mph 3 mph 55% 0 in 717 W/m2
12:45 65.1 °F 49.5 °F 30.4 in SW 0.9 mph 6 mph 57% 0 in 724 W/m2
12:50 65.5 °F 50.4 °F 30.4 in Calm   3 mph 58% 0 in 587 W/m2
12:55 65.8 °F 50.2 °F 30.4 in NE 2.9 mph 3 mph 57% 0 in 557 W/m2
13:01 66 °F 49.8 °F 30.4 in SE 2 mph 5 mph 56% 0 in 708 W/m2
13:06 66 °F 49.8 °F 30.4 in North 0.9 mph 4 mph 56% 0 in 621 W/m2
13:11 66.4 °F 50.2 °F 30.4 in SE 0.9 mph 3 mph 56% 0 in 601 W/m2
13:16 66.6 °F 49.8 °F 30.4 in East 2 mph 4 mph 55% 0 in 434 W/m2
13:21 66.4 °F 50.2 °F 30.3 in ESE 0.9 mph 4 mph 56% 0 in 355 W/m2
13:26 66.2 °F 50 °F 30.3 in NE 2.9 mph 3 mph 56% 0 in 443 W/m2
13:31 66.2 °F 49.6 °F 30.3 in Calm   6 mph 55% 0 in 489 W/m2
13:36 66.4 °F 50.2 °F 30.3 in East 2 mph 3 mph 56% 0 in 506 W/m2
13:41 66.4 °F 51.1 °F 30.3 in ENE 2 mph 3 mph 58% 0 in 524 W/m2
13:46 66.6 °F 50.4 °F 30.3 in ESE 2 mph 3 mph 56% 0 in 369 W/m2
13:51 66.7 °F 51.1 °F 30.3 in Calm   2 mph 57% 0 in 346 W/m2
13:56 66.7 °F 51.4 °F 30.3 in Calm   1 mph 58% 0 in 278 W/m2
14:01 66.6 °F 49.5 °F 30.3 in NNW 2 mph 3 mph 54% 0 in 281 W/m2
14:06 66.2 °F 49.1 °F 30.3 in ENE 2 mph 6 mph 54% 0 in 290 W/m2
14:11 66 °F 49.5 °F 30.3 in ESE 2 mph 6 mph 55% 0 in 353 W/m2
14:16 66 °F 49.5 °F 30.3 in SE 0.9 mph 9 mph 55% 0 in 357 W/m2
14:21 66 °F 49.5 °F 30.3 in East 2.9 mph 3 mph 55% 0 in 439 W/m2
14:26 66.4 °F 49.6 °F 30.3 in NNE 0.9 mph 3 mph 55% 0 in 497 W/m2
14:31 66.6 °F 50.4 °F 30.3 in Calm   3 mph 56% 0 in 570 W/m2
14:36 66.9 °F 49.8 °F 30.3 in East 2.9 mph 6 mph 54% 0 in 536 W/m2
14:41 66.9 °F 49.8 °F 30.3 in NNE 2 mph 4 mph 54% 0 in 434 W/m2
14:46 67.1 °F 49.8 °F 30.3 in East 2 mph 3 mph 54% 0 in 448 W/m2
14:51 67.1 °F 49.8 °F 30.3 in ESE 2.9 mph 5 mph 54% 0 in 417 W/m2
14:56 66.9 °F 49.8 °F 30.3 in SE 2 mph 6 mph 54% 0 in 392 W/m2
15:01 66.9 °F 50.2 °F 30.3 in ENE 0.9 mph 2 mph 55% 0 in 418 W/m2
15:06 66.9 °F 49.8 °F 30.3 in North 2 mph 6 mph 54% 0 in 424 W/m2
15:11 66.9 °F 50.7 °F 30.3 in Calm   3 mph 56% 0 in 418 W/m2
15:16 67.1 °F 50.9 °F 30.3 in ESE 0.9 mph 4 mph 56% 0 in 373 W/m2
15:21 67.3 °F 50 °F 30.3 in ENE 2 mph 4 mph 54% 0 in 276 W/m2
15:26 67.5 °F 50.7 °F 30.3 in ESE 0.9 mph 5 mph 55% 0 in 285 W/m2
15:31 67.5 °F 50.7 °F 30.3 in NE 0.9 mph 4 mph 55% 0 in 281 W/m2
15:52 68 °F 50.7 °F 30.3 in ENE 4 mph 6 mph 54% 0 in 436 W/m2
15:57 68.2 °F 50.4 °F 30.3 in NNE 9 mph 9 mph 53% 0 in 360 W/m2
16:02 68.2 °F 50.4 °F 30.3 in East 0.9 mph 2 mph 53% 0 in 271 W/m2
16:07 68 °F 50.7 °F 30.3 in East 4 mph 5 mph 54% 0 in 290 W/m2
16:12 68 °F 50.7 °F 30.3 in Calm   3 mph 54% 0 in 371 W/m2
16:17 68.2 °F 50.4 °F 30.3 in ENE 0.9 mph 6 mph 53% 0 in 308 W/m2
16:22 67.8 °F 50.5 °F 30.3 in SE 0.9 mph 3 mph 54% 0 in 343 W/m2
16:27 67.8 °F 50.5 °F 30.3 in NE 0.9 mph 2 mph 54% 0 in 283 W/m2
16:32 67.6 °F 50.4 °F 30.3 in North 0.9 mph 5 mph 54% 0 in 250 W/m2
16:37 67.5 °F 50.2 °F 30.3 in NE 2 mph 6 mph 54% 0 in 253 W/m2
16:42 67.3 °F 50 °F 30.3 in East 4 mph 5 mph 54% 0 in 221 W/m2
16:47 67.3 °F 50.5 °F 30.3 in ENE 0.9 mph 8 mph 55% 0 in 287 W/m2
16:52 67.1 °F 50.9 °F 30.3 in ENE 4 mph 5 mph 56% 0 in 255 W/m2
16:57 67.1 °F 50.9 °F 30.3 in NE 2 mph 8 mph 56% 0 in 260 W/m2
17:02 67.3 °F 51.1 °F 30.3 in SE 2 mph 8 mph 56% 0 in 234 W/m2
17:07 67.1 °F 50.9 °F 30.3 in ENE 2 mph 7 mph 56% 0 in 199 W/m2
17:12 67.3 °F 51.4 °F 30.3 in ENE 0.9 mph 2 mph 57% 0 in 204 W/m2
17:29 67.3 °F 51.4 °F 30.3 in SE 2 mph 5 mph 57% 0 in 302 W/m2
17:34 67.5 °F 51.3 °F 30.3 in SE 0.9 mph 5 mph 56% 0 in 295 W/m2
17:39 67.6 °F 50.9 °F 30.3 in ENE 2 mph 4 mph 55% 0 in 276 W/m2
17:44 67.8 °F 51.1 °F 30.3 in NE 2.9 mph 3 mph 55% 0 in 257 W/m2
17:49 67.8 °F 51.6 °F 30.3 in NE 0.9 mph 4 mph 56% 0 in 239 W/m2
17:54 67.8 °F 51.1 °F 30.3 in ESE 4 mph 8 mph 55% 0 in 209 W/m2
17:59 67.5 °F 51.3 °F 30.3 in ESE 0.9 mph 4 mph 56% 0 in 199 W/m2
18:04 67.3 °F 51.4 °F 30.3 in East 2.9 mph 8 mph 57% 0 in 128 W/m2
18:09 67.3 °F 51.4 °F 30.3 in NE 2 mph 4 mph 57% 0 in 192 W/m2
18:14 67.3 °F 51.4 °F 30.3 in Calm   2 mph 57% 0 in 163 W/m2
18:19 67.3 °F 52 °F 30.3 in ENE 0.9 mph 5 mph 58% 0 in 153 W/m2
18:24 66.9 °F 51.6 °F 30.3 in Calm   3 mph 58% 0 in 109 W/m2
18:29 66.7 °F 51.4 °F 30.3 in ESE 0.9 mph 3 mph 58% 0 in 97 W/m2
18:34 66.4 °F 52.2 °F 30.3 in ESE 0.9 mph 2 mph 60% 0 in 77 W/m2
18:39 65.8 °F 52 °F 30.3 in Calm   2 mph 61% 0 in 65 W/m2
18:44 65.7 °F 53.2 °F 30.3 in Calm     64% 0 in 56 W/m2
18:49 65.1 °F 53.4 °F 30.3 in Calm     66% 0 in 47 W/m2
18:54 64.8 °F 53.6 °F 30.3 in Calm     67% 0 in 40 W/m2
18:59 64.2 °F 53.4 °F 30.3 in SE 0.9 mph 1 mph 68% 0 in 35 W/m2
19:04 63.7 °F 52.9 °F 30.3 in Calm   1 mph 68% 0 in 28 W/m2
19:09 63 °F 52.7 °F 30.3 in Calm     69% 0 in 23 W/m2
19:14 62.4 °F 52.5 °F 30.3 in Calm   1 mph 70% 0 in 18 W/m2
19:19 62.1 °F 52.5 °F 30.3 in Calm     71% 0 in 12 W/m2
19:24 61.7 °F 52.2 °F 30.3 in Calm     71% 0 in 7 W/m2
19:29 61.3 °F 51.8 °F 30.3 in Calm     71% 0 in 0 W/m2
19:34 61 °F 52 °F 30.3 in SE 2 mph 2 mph 72% 0 in 0 W/m2
19:39 60.4 °F 51.8 °F 30.3 in Calm   1 mph 73% 0 in 0 W/m2
19:44 60.1 °F 51.8 °F 30.3 in SE 0.9 mph 2 mph 74% 0 in 0 W/m2
Juneau County Weather
Compliments of Weather Underground - 2 mb